Time;durP1;ratioP1;P1;durP2;ratioP2;P2;SDS_P1;SDS_P2;PMS_P1;PMS_P2;Temp;Humidity;BMP_temperature;BMP_pressure;BME280_temperature;BME280_humidity;BME280_pressure;Samples;Min_cycle;Max_cycle;Signal;HPM_P1;HPM_P2
2024/02/14 00:01:48;;;;;;;16.85;10.80;;;;;;;7.99;100.00;101274.63;6077159;19;20516;-74
2024/02/14 00:03:53;;;;;;;20.30;11.25;;;;;;;8.00;100.00;101268.47;6083930;19;20006;-74
2024/02/14 00:06:00;;;;;;;25.08;12.30;;;;;;;8.02;100.00;101270.16;6084442;19;20363;-74
2024/02/14 00:08:07;;;;;;;19.98;12.05;;;;;;;8.06;100.00;101268.34;6081402;19;20462;-73
2024/02/14 00:10:13;;;;;;;16.40;10.70;;;;;;;8.03;100.00;101260.56;6084208;19;20046;-73
2024/02/14 00:12:18;;;;;;;21.60;10.82;;;;;;;8.05;100.00;101264.00;6082801;19;20379;-73
2024/02/14 00:14:26;;;;;;;20.48;12.57;;;;;;;8.07;100.00;101273.53;6083132;19;20012;-74
2024/02/14 00:16:31;;;;;;;19.83;10.93;;;;;;;8.09;100.00;101269.13;6086821;19;20021;-73
2024/02/14 00:18:37;;;;;;;22.45;12.85;;;;;;;8.07;100.00;101270.91;6086021;19;20018;-73
2024/02/14 00:20:43;;;;;;;21.00;12.05;;;;;;;8.10;100.00;101260.38;6084992;19;20023;-76
2024/02/14 00:22:48;;;;;;;19.88;11.38;;;;;;;8.11;100.00;101256.03;6086235;19;20007;-76
2024/02/14 00:24:54;;;;;;;18.85;11.50;;;;;;;8.12;100.00;101262.97;6084725;19;20469;-74
2024/02/14 00:27:00;;;;;;;22.05;12.43;;;;;;;8.14;100.00;101256.81;6085273;19;20006;-73
2024/02/14 00:29:05;;;;;;;17.58;10.68;;;;;;;8.17;100.00;101257.63;6084261;19;20175;-73
2024/02/14 00:31:13;;;;;;;19.88;11.38;;;;;;;8.14;100.00;101259.41;6083057;19;20007;-75
2024/02/14 00:33:18;;;;;;;21.27;11.68;;;;;;;8.23;100.00;101253.09;6084440;19;20344;-73
2024/02/14 00:35:24;;;;;;;17.67;10.13;;;;;;;8.22;100.00;101254.00;6087834;19;20063;-73
2024/02/14 00:37:29;;;;;;;22.40;11.43;;;;;;;8.28;100.00;101259.06;6080920;19;20037;-73
2024/02/14 00:39:32;;;;;;;21.02;11.50;;;;;;;8.26;100.00;101242.53;6084090;19;20018;-73
2024/02/14 00:41:39;;;;;;;19.23;11.63;;;;;;;8.30;100.00;101257.28;6084200;19;20006;-73
2024/02/14 00:43:42;;;;;;;19.23;9.73;;;;;;;8.32;100.00;101265.09;6085857;19;20082;-74
2024/02/14 00:45:47;;;;;;;20.52;11.95;;;;;;;8.33;100.00;101245.88;6080005;19;20002;-73
2024/02/14 00:47:55;;;;;;;20.02;11.05;;;;;;;8.36;100.00;101256.28;6083756;19;20011;-73
2024/02/14 00:50:00;;;;;;;18.25;9.90;;;;;;;8.35;100.00;101250.19;6086000;19;20070;-73
2024/02/14 00:52:06;;;;;;;19.60;10.40;;;;;;;8.33;100.00;101264.22;6082278;19;20519;-74
2024/02/14 00:54:12;;;;;;;20.88;11.30;;;;;;;8.35;100.00;101263.28;6084940;19;20064;-72
2024/02/14 00:56:17;;;;;;;25.17;11.20;;;;;;;8.38;100.00;101266.72;6084184;19;20226;-73
2024/02/14 00:58:22;;;;;;;21.65;11.73;;;;;;;8.36;100.00;101261.50;6084537;19;20010;-74
2024/02/14 01:00:28;;;;;;;24.98;11.65;;;;;;;8.35;100.00;101257.19;6085628;19;20011;-74
2024/02/14 01:02:33;;;;;;;20.92;11.45;;;;;;;8.36;100.00;101256.28;6087263;19;20345;-73
2024/02/14 01:04:41;;;;;;;21.48;10.23;;;;;;;8.38;100.00;101256.25;6084428;19;20430;-72
2024/02/14 01:06:43;;;;;;;16.20;9.77;;;;;;;8.48;100.00;101260.41;6084390;19;20646;-71
2024/02/14 01:08:48;;;;;;;21.88;11.93;;;;;;;8.51;100.00;101262.94;6085405;19;20114;-72
2024/02/14 01:10:53;;;;;;;24.33;12.90;;;;;;;8.54;100.00;101257.63;6084215;19;20404;-72
2024/02/14 01:12:59;;;;;;;17.02;10.40;;;;;;;8.63;100.00;101262.59;6083966;19;20011;-71
2024/02/14 01:15:04;;;;;;;18.67;11.23;;;;;;;8.61;100.00;101267.06;6083397;19;20042;-72
2024/02/14 01:17:09;;;;;;;22.80;12.75;;;;;;;8.67;100.00;101269.50;6080671;19;20034;-73
2024/02/14 01:19:14;;;;;;;20.92;13.07;;;;;;;8.68;100.00;101267.72;6083579;19;20417;-70
2024/02/14 01:21:22;;;;;;;23.60;12.13;;;;;;;8.68;100.00;101268.59;6085021;19;20070;-72
2024/02/14 01:23:27;;;;;;;20.52;13.02;;;;;;;8.67;100.00;101261.63;6084012;19;20570;-70
2024/02/14 01:25:33;;;;;;;22.83;13.27;;;;;;;8.68;100.00;101263.34;6081872;19;20452;-70
2024/02/14 01:27:38;;;;;;;19.63;10.55;;;;;;;8.69;100.00;101262.47;6083705;19;20016;-70
2024/02/14 01:29:43;;;;;;;19.55;10.98;;;;;;;8.70;100.00;101264.19;6083257;19;20010;-71
2024/02/14 01:31:48;;;;;;;26.35;12.65;;;;;;;8.78;100.00;101261.34;6082449;19;20002;-71
2024/02/14 01:33:53;;;;;;;25.20;13.80;;;;;;;8.74;100.00;101268.44;6081997;19;20524;-70
2024/02/14 01:36:01;;;;;;;24.98;12.93;;;;;;;8.81;100.00;101271.75;6083445;19;20006;-71
2024/02/14 01:38:06;;;;;;;21.45;12.65;;;;;;;8.79;100.00;101270.94;6083324;19;20006;-71
2024/02/14 01:40:13;;;;;;;22.17;11.85;;;;;;;8.81;100.00;101270.91;6084923;19;20015;-71
2024/02/14 01:42:18;;;;;;;22.55;11.95;;;;;;;8.78;100.00;101274.47;6082621;19;20031;-72
2024/02/14 01:44:23;;;;;;;23.55;11.48;;;;;;;8.77;100.00;101271.00;6083479;19;20041;-75
2024/02/14 01:46:29;;;;;;;18.92;11.50;;;;;;;8.76;100.00;101271.88;6083608;19;20482;-74
2024/02/14 01:48:35;;;;;;;24.30;11.07;;;;;;;8.77;100.00;101263.13;6083964;19;20334;-75
2024/02/14 01:50:42;;;;;;;21.60;11.43;;;;;;;8.81;100.00;101279.63;6084332;19;20113;-75
2024/02/14 01:52:48;;;;;;;18.38;11.27;;;;;;;8.81;100.00;101278.75;6082096;19;20418;-75
2024/02/14 01:54:57;;;;;;;22.63;10.68;;;;;;;8.84;100.00;101283.91;6083984;19;20599;-75
2024/02/14 01:57:03;;;;;;;16.67;9.93;;;;;;;8.81;100.00;101279.63;6081339;19;20444;-75
2024/02/14 01:59:12;;;;;;;20.10;10.55;;;;;;;8.76;100.00;101287.59;6083504;19;20133;-75
2024/02/14 02:01:17;;;;;;;16.80;10.38;;;;;;;8.81;100.00;101286.63;6085216;19;20039;-73
2024/02/14 02:03:23;;;;;;;20.40;10.13;;;;;;;8.76;100.00;101279.72;6083701;19;20110;-73
2024/02/14 02:05:31;;;;;;;19.23;10.88;;;;;;;8.81;100.00;101289.25;6081809;19;20011;-73
2024/02/14 02:07:33;;;;;;;18.00;9.88;;;;;;;8.79;100.00;101282.28;6084747;19;20550;-75
2024/02/14 02:09:39;;;;;;;19.27;9.77;;;;;;;8.77;100.00;101288.47;6085104;19;20014;-75
2024/02/14 02:11:55;;;;;;;21.60;11.60;;;;;;;8.76;100.00;101284.13;6084576;19;20034;-75
2024/02/14 02:14:01;;;;;;;19.65;11.25;;;;;;;8.82;100.00;101297.09;5978623;19;2004698;-74
2024/02/14 02:16:07;;;;;;;20.98;11.98;;;;;;;8.85;100.00;101296.13;6081239;19;20040;-72
2024/02/14 02:18:10;;;;;;;20.35;11.23;;;;;;;8.82;100.00;101288.34;6081280;19;20622;-73
2024/02/14 02:20:15;;;;;;;21.33;11.88;;;;;;;8.86;100.00;101298.72;6082572;19;20504;-73
2024/02/14 02:22:18;;;;;;;18.63;10.98;;;;;;;8.87;100.00;101299.56;6082911;19;20019;-73
2024/02/14 02:24:25;;;;;;;24.88;12.52;;;;;;;8.84;100.00;101300.50;6079657;19;20022;-74
2024/02/14 02:26:31;;;;;;;19.25;10.70;;;;;;;8.85;100.00;101304.84;6080822;19;20512;-74
2024/02/14 02:28:36;;;;;;;19.85;12.18;;;;;;;8.88;100.00;101310.00;6081785;19;20007;-72
2024/02/14 02:30:41;;;;;;;18.90;11.07;;;;;;;8.92;100.00;101305.53;6082017;19;20007;-73
2024/02/14 02:32:43;;;;;;;20.20;11.77;;;;;;;8.93;100.00;101307.28;6087359;19;20027;-70
2024/02/14 02:34:49;;;;;;;22.30;12.02;;;;;;;8.96;100.00;101307.19;6086455;19;20525;-72
2024/02/14 02:36:51;;;;;;;21.08;11.52;;;;;;;9.02;100.00;101315.75;6086123;19;20010;-70
2024/02/14 02:38:57;;;;;;;23.80;11.90;;;;;;;9.00;100.00;101316.69;6086542;19;20006;-72
2024/02/14 02:41:06;;;;;;;22.90;11.52;;;;;;;9.01;100.00;101300.94;6087306;19;20065;-72
2024/02/14 02:43:12;;;;;;;21.45;11.40;;;;;;;9.00;100.00;101308.81;6087207;19;20015;-72
2024/02/14 02:45:17;;;;;;;22.52;11.18;;;;;;;9.03;100.00;101311.38;6088149;19;20034;-73
2024/02/14 02:47:22;;;;;;;19.92;11.15;;;;;;;9.00;100.00;101308.81;6086147;19;20011;-73
2024/02/14 02:49:25;;;;;;;17.10;9.73;;;;;;;9.05;100.00;101319.19;6088707;19;20483;-72
2024/02/14 02:51:30;;;;;;;17.75;10.30;;;;;;;9.07;100.00;101313.00;6085295;19;20078;-71
2024/02/14 02:53:36;;;;;;;20.45;10.50;;;;;;;9.11;100.00;101319.00;6085568;19;20010;-71
2024/02/14 02:55:41;;;;;;;21.05;11.30;;;;;;;9.08;100.00;101313.84;6086352;19;20066;-70
2024/02/14 02:57:48;;;;;;;22.30;10.98;;;;;;;9.13;100.00;101318.06;6086412;19;20011;-73
2024/02/14 02:59:54;;;;;;;19.65;11.02;;;;;;;9.16;100.00;101323.25;6088630;19;20046;-72
2024/02/14 03:01:59;;;;;;;23.65;10.73;;;;;;;9.16;100.00;101315.41;6088929;19;20006;-71
2024/02/14 03:04:04;;;;;;;20.73;10.07;;;;;;;9.21;100.00;101321.34;6089270;19;20810;-71
2024/02/14 03:06:09;;;;;;;19.70;9.38;;;;;;;9.25;100.00;101326.53;6086574;19;20070;-71
2024/02/14 03:08:15;;;;;;;14.73;8.50;;;;;;;9.23;100.00;101311.69;6086145;19;20086;-70
2024/02/14 03:10:23;;;;;;;19.63;9.25;;;;;;;9.28;100.00;101332.53;6085531;19;20014;-70
2024/02/14 03:12:30;;;;;;;20.90;10.35;;;;;;;9.29;100.00;101329.00;6087526;19;20043;-70
2024/02/14 03:14:40;;;;;;;22.65;10.02;;;;;;;9.30;100.00;101319.41;6086591;19;20475;-70
2024/02/14 03:16:46;;;;;;;19.50;10.00;;;;;;;9.32;100.00;101328.06;6085729;19;20034;-70
2024/02/14 03:18:52;;;;;;;18.65;8.93;;;;;;;9.33;100.00;101324.56;6084814;19;20081;-71
2024/02/14 03:20:57;;;;;;;20.65;9.40;;;;;;;9.39;100.00;101329.63;6085845;19;20087;-71
2024/02/14 03:23:03;;;;;;;18.45;8.48;;;;;;;9.39;100.00;101334.88;6086954;19;20013;-71
2024/02/14 03:25:09;;;;;;;18.10;10.13;;;;;;;9.39;100.00;101335.72;6083087;19;20006;-68
2024/02/14 03:27:17;;;;;;;16.80;9.57;;;;;;;9.44;100.00;101341.72;6087930;19;20613;-69
2024/02/14 03:29:19;;;;;;;19.85;8.43;;;;;;;9.50;100.00;101335.44;6086360;19;20380;-69
2024/02/14 03:31:27;;;;;;;;;;;;;;;9.47;100.00;101334.66;6086746;19;20010;-71
2024/02/14 03:33:32;;;;;;;22.13;8.45;;;;;;;9.47;100.00;101338.13;6086282;19;20592;-71
2024/02/14 03:35:38;;;;;;;18.88;9.20;;;;;;;9.48;100.00;101334.63;6086504;19;20015;-69
2024/02/14 03:37:47;;;;;;;22.52;8.13;;;;;;;9.48;100.00;101337.25;6086279;19;20018;-69
2024/02/14 03:39:52;;;;;;;19.85;9.73;;;;;;;9.49;100.00;101333.72;6087202;19;20629;-70
2024/02/14 03:41:58;;;;;;;21.70;9.57;;;;;;;9.52;100.00;101332.78;6086987;19;20009;-69
2024/02/14 03:44:03;;;;;;;20.13;8.07;;;;;;;9.50;100.00;101342.44;6088194;19;20010;-68
2024/02/14 03:46:08;;;;;;;18.90;8.60;;;;;;;9.55;100.00;101337.94;6086160;19;20013;-70
2024/02/14 03:48:16;;;;;;;21.17;9.90;;;;;;;9.63;100.00;101338.56;6086949;19;20006;-69
2024/02/14 03:50:22;;;;;;;23.10;7.95;;;;;;;9.65;100.00;101342.88;6085067;19;20014;-70
2024/02/14 03:52:32;;;;;;;23.10;8.98;;;;;;;9.61;100.00;101338.63;6085051;19;20012;-69
2024/02/14 03:54:37;;;;;;;18.08;8.32;;;;;;;9.65;100.00;101342.88;6085307;19;20010;-69
2024/02/14 03:56:42;;;;;;;18.42;7.38;;;;;;;9.65;100.00;101340.25;6082550;19;20011;-69
2024/02/14 03:58:47;;;;;;;23.58;9.85;;;;;;;9.66;100.00;101347.22;6085760;19;20020;-69
2024/02/14 04:00:53;;;;;;;24.95;9.32;;;;;;;9.71;100.00;101348.84;6086604;19;20138;-71
2024/02/14 04:02:58;;;;;;;25.00;8.43;;;;;;;9.66;100.00;101349.84;6085466;19;20021;-69
2024/02/14 04:05:07;;;;;;;17.02;8.27;;;;;;;9.71;100.00;101346.22;6088017;19;20509;-71
2024/02/14 04:07:13;;;;;;;22.05;8.82;;;;;;;9.71;100.00;101352.31;6085931;19;20527;-72
2024/02/14 04:09:18;;;;;;;18.55;7.72;;;;;;;9.72;100.00;101355.84;6086169;19;20006;-69
2024/02/14 04:11:23;;;;;;;18.98;7.80;;;;;;;9.73;100.00;101360.16;6086819;19;20042;-71
2024/02/14 04:13:31;;;;;;;23.15;8.38;;;;;;;9.73;100.00;101354.91;6085544;19;20448;-71
2024/02/14 04:15:36;;;;;;;19.05;9.05;;;;;;;9.75;100.00;101353.97;6086140;19;20017;-71
2024/02/14 04:17:42;;;;;;;23.88;8.77;;;;;;;9.79;100.00;101362.59;6087948;19;20006;-71
2024/02/14 04:19:48;;;;;;;19.45;8.23;;;;;;;9.75;100.00;101363.63;6085829;19;20086;-71
2024/02/14 04:21:56;;;;;;;16.45;8.70;;;;;;;9.76;100.00;101367.94;6086956;19;20479;-69
2024/02/14 04:24:01;;;;;;;15.93;8.07;;;;;;;9.75;100.00;101361.84;6086520;19;20007;-69
2024/02/14 04:26:08;;;;;;;15.45;8.30;;;;;;;9.80;100.00;101369.59;6085826;19;20299;-70
2024/02/14 04:28:13;;;;;;;23.10;8.73;;;;;;;9.79;100.00;101368.72;6083574;19;20014;-69
2024/02/14 04:30:19;;;;;;;23.27;9.00;;;;;;;9.77;100.00;101365.28;6085324;19;20017;-70
2024/02/14 04:32:27;;;;;;;21.70;9.95;;;;;;;9.77;100.00;101370.53;6085703;19;20042;-72
2024/02/14 04:34:32;;;;;;;27.88;8.20;;;;;;;9.82;100.00;101370.38;6084106;19;20006;-70
2024/02/14 04:36:40;;;;;;;19.88;7.97;;;;;;;9.85;100.00;101370.31;6086365;19;20017;-70
2024/02/14 04:38:49;;;;;;;20.25;7.90;;;;;;;9.85;100.00;101375.56;6085775;19;20551;-69
2024/02/14 04:40:52;;;;;;;25.13;9.40;;;;;;;9.83;100.00;101369.50;6084095;19;20452;-70
2024/02/14 04:42:57;;;;;;;20.83;10.07;;;;;;;9.82;100.00;101375.63;6084877;19;20013;-69
2024/02/14 04:45:02;;;;;;;23.13;9.45;;;;;;;9.81;100.00;101380.03;6085497;19;20022;-70
2024/02/14 04:47:09;;;;;;;19.65;9.38;;;;;;;9.78;100.00;101389.78;6084515;19;19999;-70
2024/02/14 04:49:14;;;;;;;21.30;9.32;;;;;;;9.76;100.00;101376.69;6086772;19;20763;-70
2024/02/14 04:51:17;;;;;;;17.17;8.38;;;;;;;9.74;100.00;101382.88;6085960;19;20367;-70
2024/02/14 04:53:22;;;;;;;22.40;9.20;;;;;;;9.76;100.00;101386.31;6083037;19;20010;-70
2024/02/14 04:55:30;;;;;;;17.38;8.93;;;;;;;9.76;100.00;101400.31;6084892;19;20002;-72
2024/02/14 04:57:35;;;;;;;20.90;9.70;;;;;;;9.76;100.00;101395.06;6085642;19;20048;-72
2024/02/14 04:59:40;;;;;;;17.92;8.77;;;;;;;9.75;100.00;101400.34;6085814;19;20024;-71
2024/02/14 05:01:46;;;;;;;14.32;7.63;;;;;;;9.78;100.00;101389.78;6084130;19;20597;-72
2024/02/14 05:03:51;;;;;;;17.75;7.35;;;;;;;9.81;100.00;101400.19;6086226;19;20015;-71
2024/02/14 05:05:57;;;;;;;12.80;8.65;;;;;;;9.82;100.00;101396.63;6084507;19;20021;-71
2024/02/14 05:08:03;;;;;;;18.80;8.25;;;;;;;9.87;100.00;101392.13;6085763;19;20470;-72
2024/02/14 05:10:09;;;;;;;22.20;7.63;;;;;;;9.85;100.00;101394.81;6084600;19;20027;-72
2024/02/14 05:12:17;;;;;;;12.52;7.28;;;;;;;9.89;100.00;101388.53;6081125;19;20786;-70
2024/02/14 05:14:20;;;;;;;18.83;7.25;;;;;;;9.91;100.00;101395.53;6081532;19;20007;-71
2024/02/14 05:16:27;;;;;;;13.52;5.63;;;;;;;9.92;100.00;101395.47;6082417;19;20104;-71
2024/02/14 05:18:32;;;;;;;14.95;6.07;;;;;;;9.88;100.00;101399.09;6084301;19;20025;-71
2024/02/14 05:20:38;;;;;;;11.70;6.18;;;;;;;9.88;100.00;101399.09;6084126;19;20805;-71
2024/02/14 05:22:43;;;;;;;18.77;6.03;;;;;;;9.89;100.00;101403.44;6082298;19;20014;-71
2024/02/14 05:24:46;;;;;;;12.93;6.32;;;;;;;9.87;100.00;101403.50;6082842;19;22718;-69
2024/02/14 05:26:52;;;;;;;20.10;8.48;;;;;;;9.89;100.00;101406.91;6085432;19;20018;-69
2024/02/14 05:28:59;;;;;;;16.23;7.10;;;;;;;9.93;100.00;101402.47;6084248;19;20554;-70
2024/02/14 05:31:05;;;;;;;17.55;7.55;;;;;;;9.88;100.00;101402.59;6083593;19;20010;-70
2024/02/14 05:33:10;;;;;;;16.77;7.30;;;;;;;9.87;100.00;101406.13;6085000;19;20483;-70
2024/02/14 05:35:17;;;;;;;17.38;7.80;;;;;;;9.83;100.00;101409.72;6083539;19;20062;-70
2024/02/14 05:37:22;;;;;;;15.82;8.05;;;;;;;9.83;100.00;101406.25;6084781;19;20014;-71
2024/02/14 05:39:27;;;;;;;18.30;7.97;;;;;;;9.82;100.00;101413.28;6084838;19;20365;-70
2024/02/14 05:41:32;;;;;;;24.52;9.70;;;;;;;9.78;100.00;101418.63;6081680;19;20003;-71
2024/02/14 05:43:41;;;;;;;19.27;8.68;;;;;;;9.80;100.00;101414.22;6081889;19;20014;-71
2024/02/14 05:45:49;;;;;;;22.63;9.55;;;;;;;9.78;100.00;101416.88;6083751;19;20043;-71
2024/02/14 05:47:54;;;;;;;23.27;9.68;;;;;;;9.78;100.00;101421.25;6081395;19;20519;-71
2024/02/14 05:49:59;;;;;;;21.60;10.45;;;;;;;9.83;100.00;101419.38;6084825;19;20454;-71
2024/02/14 05:52:05;;;;;;;28.13;11.75;;;;;;;9.80;100.00;101419.47;6084053;19;20078;-71
2024/02/14 05:54:10;;;;;;;26.30;11.13;;;;;;;9.77;100.00;101419.53;6081957;19;20024;-71
2024/02/14 05:56:15;;;;;;;24.73;11.15;;;;;;;9.78;100.00;101430.00;6079825;19;20019;-71
2024/02/14 05:58:20;;;;;;;24.85;11.00;;;;;;;9.77;100.00;101427.41;6081948;19;20027;-71
2024/02/14 06:00:23;;;;;;;25.10;11.68;;;;;;;9.80;100.00;101425.56;6084952;19;20548;-71
2024/02/14 06:02:35;;;;;;;23.40;10.80;;;;;;;9.77;100.00;101427.41;6083597;19;20030;-69
2024/02/14 06:04:42;;;;;;;29.50;12.15;;;;;;;9.83;100.00;101427.25;6084907;19;20019;-71
2024/02/14 06:06:45;;;;;;;28.25;12.80;;;;;;;9.83;100.00;101424.63;6083367;19;20060;-71
2024/02/14 06:08:50;;;;;;;31.80;12.23;;;;;;;9.79;100.00;101429.06;6082008;19;20010;-71
2024/02/14 06:10:57;;;;;;;27.48;11.90;;;;;;;9.80;100.00;101429.97;6084681;19;20002;-69
2024/02/14 06:13:02;;;;;;;27.30;11.38;;;;;;;9.79;100.00;101436.09;6082550;19;20010;-69
2024/02/14 06:15:09;;;;;;;25.20;11.65;;;;;;;9.84;100.00;101442.09;6079694;19;20602;-69
2024/02/14 06:17:14;;;;;;;25.42;11.20;;;;;;;9.82;100.00;101433.38;6085219;19;20414;-72
2024/02/14 06:19:22;;;;;;;24.73;12.40;;;;;;;9.80;100.00;101435.22;6081355;19;20035;-71
2024/02/14 06:21:27;;;;;;;27.48;10.98;;;;;;;9.84;100.00;101431.59;6077091;19;20003;-71
2024/02/14 06:23:32;;;;;;;24.63;12.40;;;;;;;9.85;100.00;101434.19;6079517;19;20007;-70
2024/02/14 06:25:38;;;;;;;26.85;11.82;;;;;;;9.83;100.00;101438.59;6078521;19;20422;-70
2024/02/14 06:27:43;;;;;;;25.25;13.15;;;;;;;9.81;100.00;101434.28;6074592;19;20051;-70
2024/02/14 06:29:48;;;;;;;30.17;12.88;;;;;;;9.79;100.00;101434.31;6080223;19;20046;-70
2024/02/14 06:31:53;;;;;;;29.38;13.90;;;;;;;9.80;100.00;101437.84;6080070;19;20010;-70
2024/02/14 06:33:58;;;;;;;30.67;14.40;;;;;;;9.79;100.00;101438.72;6082043;19;20021;-70
2024/02/14 06:36:07;;;;;;;24.80;12.57;;;;;;;9.81;100.00;101440.41;6085068;19;20060;-71
2024/02/14 06:38:12;;;;;;;31.17;14.30;;;;;;;9.80;100.00;101437.84;6082642;19;20014;-70
2024/02/14 06:40:17;;;;;;;28.10;14.48;;;;;;;9.82;100.00;101438.63;6076570;19;20011;-71
2024/02/14 06:42:23;;;;;;;28.58;13.55;;;;;;;9.83;100.00;101437.75;6084410;19;20015;-71
2024/02/14 06:44:28;;;;;;;30.65;15.98;;;;;;;9.80;100.00;101456.22;6083354;19;20039;-72
2024/02/14 06:46:33;;;;;;;31.52;14.60;;;;;;;9.77;100.00;101453.66;6080152;19;20035;-70
2024/02/14 06:48:35;;;;;;;39.25;14.30;;;;;;;9.78;100.00;101452.75;6079511;19;20008;-70
2024/02/14 06:50:40;;;;;;;36.22;14.25;;;;;;;9.77;100.00;101461.53;6081585;19;20446;-71
2024/02/14 06:52:48;;;;;;;30.33;15.07;;;;;;;9.79;100.00;101464.97;6079533;19;20010;-71
2024/02/14 06:54:54;;;;;;;30.05;14.45;;;;;;;9.77;100.00;101458.91;6083634;19;20119;-71
2024/02/14 06:56:59;;;;;;;35.50;15.25;;;;;;;9.75;100.00;101458.94;6083164;19;20014;-71
2024/02/14 06:59:05;;;;;;;37.95;14.55;;;;;;;9.76;100.00;101465.06;6082219;19;20048;-71
2024/02/14 07:01:12;;;;;;;27.92;14.20;;;;;;;9.80;100.00;101458.84;6082556;19;20022;-71
2024/02/14 07:03:14;;;;;;;24.55;13.10;;;;;;;9.80;100.00;101464.09;6081447;19;20451;-71
2024/02/14 07:05:19;;;;;;;30.15;14.27;;;;;;;9.79;100.00;101463.19;6082421;19;20006;-71
2024/02/14 07:07:25;;;;;;;29.08;12.48;;;;;;;9.80;100.00;101467.56;6079785;19;20002;-72
2024/02/14 07:09:35;;;;;;;24.30;12.75;;;;;;;9.83;100.00;101471.88;6079650;19;20010;-70
2024/02/14 07:11:40;;;;;;;23.70;11.63;;;;;;;9.81;100.00;101471.91;6081609;19;20047;-70
2024/02/14 07:13:43;;;;;;;25.40;12.80;;;;;;;9.83;100.00;101480.59;6079505;19;20477;-70
2024/02/14 07:15:48;;;;;;;26.85;13.35;;;;;;;9.80;100.00;101472.81;6080612;19;20021;-70
2024/02/14 07:17:53;;;;;;;24.83;12.88;;;;;;;9.80;100.00;101482.47;6087038;19;20019;-70
2024/02/14 07:19:58;;;;;;;23.48;12.00;;;;;;;9.80;100.00;101483.31;6088258;19;20007;-69
2024/02/14 07:22:00;;;;;;;22.67;11.82;;;;;;;9.85;100.00;101486.69;6086970;19;20082;-70
2024/02/14 07:24:06;;;;;;;25.08;12.95;;;;;;;9.82;100.00;101480.63;6087857;19;20007;-69
2024/02/14 07:26:11;;;;;;;24.38;12.40;;;;;;;9.80;100.00;101478.06;6087968;19;20042;-70
2024/02/14 07:28:17;;;;;;;27.35;13.18;;;;;;;9.83;100.00;101477.13;6087378;19;20467;-71
2024/02/14 07:30:19;;;;;;;24.58;12.48;;;;;;;9.84;100.00;101481.47;6088902;19;20468;-69
2024/02/14 07:32:25;;;;;;;21.67;11.73;;;;;;;9.82;100.00;101485.88;6087478;19;20078;-71
2024/02/14 07:34:31;;;;;;;26.25;12.45;;;;;;;9.85;100.00;101491.06;6086278;19;20014;-72
2024/02/14 07:36:36;;;;;;;26.05;12.43;;;;;;;9.84;100.00;101487.56;6087540;19;20416;-70
2024/02/14 07:38:42;;;;;;;22.85;12.88;;;;;;;9.82;100.00;101493.75;6085819;19;20003;-69
2024/02/14 07:40:44;;;;;;;26.88;11.88;;;;;;;9.83;100.00;101498.97;6089042;19;20017;-70
2024/02/14 07:42:53;;;;;;;25.98;11.15;;;;;;;9.82;100.00;101501.63;6088047;19;20176;-69
2024/02/14 07:44:56;;;;;;;25.38;12.00;;;;;;;9.84;100.00;101500.69;6087768;19;20010;-70
2024/02/14 07:47:01;;;;;;;27.55;13.32;;;;;;;9.84;100.00;101498.06;6090530;19;20017;-71
2024/02/14 07:49:09;;;;;;;21.45;12.43;;;;;;;9.85;100.00;101506.81;6085112;19;20003;-70
2024/02/14 07:51:15;;;;;;;25.73;12.05;;;;;;;9.82;100.00;101501.63;6086744;19;20058;-71
2024/02/14 07:53:20;;;;;;;25.52;12.88;;;;;;;9.86;100.00;101505.91;6079211;19;20011;-71
2024/02/14 07:55:24;;;;;;;24.85;12.02;;;;;;;9.84;100.00;101505.94;6083894;19;20003;-71
2024/02/14 07:57:30;;;;;;;25.40;11.27;;;;;;;9.88;100.00;101502.34;6084997;19;20082;-71
2024/02/14 07:59:38;;;;;;;22.13;10.15;;;;;;;9.88;100.00;101506.75;6083712;19;20027;-72
2024/02/14 08:01:43;;;;;;;19.90;10.77;;;;;;;9.87;100.00;101505.00;6088479;19;20475;-73
2024/02/14 08:03:48;;;;;;;20.75;11.48;;;;;;;9.87;100.00;101512.88;6083417;19;20013;-72
2024/02/14 08:05:54;;;;;;;22.60;11.48;;;;;;;9.87;100.00;101511.13;6085117;19;20010;-72
2024/02/14 08:07:59;;;;;;;21.17;10.23;;;;;;;9.85;100.00;101512.06;6084434;19;20641;-72
2024/02/14 08:10:05;;;;;;;17.75;8.45;;;;;;;9.87;100.00;101520.75;6085754;19;20006;-73
2024/02/14 08:12:10;;;;;;;14.25;8.15;;;;;;;9.83;100.00;101519.13;6084714;19;20043;-73
2024/02/14 08:14:15;;;;;;;16.17;7.75;;;;;;;9.81;100.00;101520.91;6085776;19;20014;-74
2024/02/14 08:16:23;;;;;;;15.73;7.85;;;;;;;9.79;100.00;101523.56;6085185;19;20010;-74
2024/02/14 08:18:29;;;;;;;16.67;8.20;;;;;;;9.80;100.00;101522.69;6085559;19;20014;-73
2024/02/14 08:20:35;;;;;;;18.48;9.20;;;;;;;9.78;100.00;101521.00;6077067;19;20009;-74
2024/02/14 08:22:40;;;;;;;15.15;8.10;;;;;;;9.81;100.00;101523.53;6085483;19;20014;-74
2024/02/14 08:24:42;;;;;;;17.60;9.27;;;;;;;9.87;100.00;101529.50;6084793;19;20746;-75
2024/02/14 08:26:47;;;;;;;20.98;9.55;;;;;;;9.84;100.00;101526.94;6088131;19;20006;-74
2024/02/14 08:28:53;;;;;;;26.55;12.20;;;;;;;9.89;100.00;101524.19;6081371;19;20015;-74
2024/02/14 08:31:01;;;;;;;21.63;11.60;;;;;;;9.87;100.00;101521.63;6085343;19;20019;-74
2024/02/14 08:33:10;;;;;;;27.70;12.52;;;;;;;9.88;100.00;101527.75;6085718;19;20635;-73
2024/02/14 08:35:17;;;;;;;24.08;11.95;;;;;;;9.88;100.00;101523.34;6085190;19;20048;-72
2024/02/14 08:37:23;;;;;;;28.60;13.80;;;;;;;9.89;100.00;101526.81;6086331;19;20027;-73
2024/02/14 08:39:29;;;;;;;26.25;13.10;;;;;;;9.89;100.00;101527.69;6082822;19;20047;-74
2024/02/14 08:41:34;;;;;;;28.08;13.82;;;;;;;9.87;100.00;101516.38;6084067;19;20014;-73
2024/02/14 08:43:39;;;;;;;30.17;13.30;;;;;;;9.90;100.00;101528.56;6086553;19;20086;-73
2024/02/14 08:45:47;;;;;;;25.70;13.13;;;;;;;9.96;100.00;101527.53;6084904;19;20074;-73
2024/02/14 08:47:54;;;;;;;30.65;14.65;;;;;;;9.95;100.00;101531.91;6088327;19;20010;-74
2024/02/14 08:50:02;;;;;;;33.90;15.13;;;;;;;9.93;100.00;101536.34;6085658;19;20475;-74
2024/02/14 08:52:08;;;;;;;36.13;16.80;;;;;;;9.95;100.00;101537.16;6086226;19;20043;-72
2024/02/14 08:54:15;;;;;;;32.38;13.32;;;;;;;9.99;100.00;101532.69;6084513;19;20034;-70
2024/02/14 08:56:21;;;;;;;30.55;14.20;;;;;;;10.00;100.00;101543.16;6082747;19;20148;-72
2024/02/14 08:58:26;;;;;;;29.08;15.93;;;;;;;10.07;100.00;101534.22;6084351;19;20007;-72
2024/02/14 09:00:31;;;;;;;34.72;15.45;;;;;;;10.04;100.00;101539.53;6084467;19;20728;-72
2024/02/14 09:02:36;;;;;;;31.67;14.18;;;;;;;10.10;100.00;101543.75;6078105;19;20031;-71
2024/02/14 09:04:42;;;;;;;25.00;13.18;;;;;;;10.08;100.00;101546.44;6084573;19;20009;-72
2024/02/14 09:06:50;;;;;;;32.47;15.18;;;;;;;10.17;100.00;101547.09;6085666;19;20006;-71
2024/02/14 09:08:58;;;;;;;28.08;14.45;;;;;;;10.13;100.00;101541.06;6083789;19;20021;-72
2024/02/14 09:11:03;;;;;;;24.33;11.88;;;;;;;10.19;100.00;101551.41;6084868;19;20007;-72
2024/02/14 09:13:09;;;;;;;24.05;11.75;;;;;;;10.16;100.00;101545.34;6085488;19;20461;-71
2024/02/14 09:15:14;;;;;;;19.02;10.57;;;;;;;10.16;100.00;101538.34;6085834;19;20653;-71
2024/02/14 09:17:19;;;;;;;21.50;10.93;;;;;;;10.18;100.00;101543.56;6085313;19;20046;-72
2024/02/14 09:19:27;;;;;;;17.80;10.13;;;;;;;10.19;100.00;101548.78;6085151;19;20042;-70
2024/02/14 09:21:34;;;;;;;22.63;10.73;;;;;;;10.21;100.00;101543.47;6084669;19;20079;-71
2024/02/14 09:23:45;;;;;;;18.27;9.68;;;;;;;10.22;100.00;101547.84;6082866;19;20013;-74
2024/02/14 09:25:51;;;;;;;17.45;9.43;;;;;;;10.18;100.00;101548.81;6085646;19;20367;-72
2024/02/14 09:27:55;;;;;;;19.00;9.70;;;;;;;10.22;100.00;101551.31;6083183;19;20022;-72
2024/02/14 09:30:02;;;;;;;17.98;9.32;;;;;;;10.21;100.00;101551.34;6084155;19;20377;-72
2024/02/14 09:32:05;;;;;;;19.25;9.27;;;;;;;10.21;100.00;101559.22;6083003;19;20011;-72
2024/02/14 09:34:12;;;;;;;16.63;8.93;;;;;;;10.27;100.00;101565.22;6085079;19;20010;-72